Time;durP1;ratioP1;P1;durP2;ratioP2;P2;SDS_P1;SDS_P2;PMS_P1;PMS_P2;Temp;Humidity;BMP_temperature;BMP_pressure;BME280_temperature;BME280_humidity;BME280_pressure;Samples;Min_cycle;Max_cycle;Signal;HPM_P1;HPM_P2
2021/06/01 00:00:04;;;;;;;1999.90;999.90;;;14.20;99.90;;;;;;4954371;28;20189;-76
2021/06/01 00:02:30;;;;;;;1999.90;999.90;;;14.10;99.90;;;;;;4954209;28;20628;-76
2021/06/01 00:04:55;;;;;;;1999.90;999.90;;;14.10;99.90;;;;;;4953384;28;20266;-76
2021/06/01 00:07:21;;;;;;;1999.90;999.90;;;14.10;99.90;;;;;;4955703;29;20185;-76
2021/06/01 00:09:47;;;;;;;1999.90;999.90;;;14.10;99.90;;;;;;4954278;28;20182;-76
2021/06/01 00:12:12;;;;;;;1999.90;999.90;;;14.10;99.90;;;;;;4954131;28;20201;-75
2021/06/01 00:14:38;;;;;;;1999.90;999.90;;;14.10;99.90;;;;;;4954145;28;20201;-75
2021/06/01 00:17:04;;;;;;;1999.90;999.90;;;14.00;99.90;;;;;;4954701;28;20187;-77
2021/06/01 00:19:30;;;;;;;1999.90;999.90;;;14.00;99.90;;;;;;4955789;28;20260;-75
2021/06/01 00:21:56;;;;;;;1999.90;999.90;;;13.90;99.90;;;;;;4953973;28;20193;-75
2021/06/01 00:24:21;;;;;;;1999.90;999.90;;;13.90;99.90;;;;;;4954174;28;20185;-76
2021/06/01 00:26:47;;;;;;;1999.90;999.90;;;13.80;99.90;;;;;;4954009;28;20247;-76
2021/06/01 00:29:13;;;;;;;1999.90;999.90;;;13.80;99.90;;;;;;4956586;28;20181;-76
2021/06/01 00:31:39;;;;;;;1999.90;999.90;;;13.70;99.90;;;;;;4955163;28;20291;-76
2021/06/01 00:34:05;;;;;;;1999.90;999.90;;;13.70;99.90;;;;;;4955218;28;20208;-76
2021/06/01 00:36:31;;;;;;;1999.90;999.90;;;13.70;99.90;;;;;;4953718;28;20651;-77
2021/06/01 00:38:57;;;;;;;1999.90;999.90;;;13.60;99.90;;;;;;4954528;28;20177;-76
2021/06/01 00:41:22;;;;;;;1999.90;999.90;;;13.60;99.90;;;;;;4954924;29;20221;-76
2021/06/01 00:43:48;;;;;;;1999.90;999.90;;;13.50;99.90;;;;;;4954141;28;20199;-75
2021/06/01 00:46:14;;;;;;;1999.90;999.90;;;13.50;99.90;;;;;;4961758;28;20279;-76
2021/06/01 00:48:40;;;;;;;1999.90;999.90;;;13.40;99.90;;;;;;4954773;29;20635;-76
2021/06/01 00:51:06;;;;;;;1999.90;999.90;;;13.40;99.90;;;;;;4953433;28;20577;-75
2021/06/01 00:53:33;;;;;;;1999.90;999.90;;;13.40;99.90;;;;;;4954671;29;20274;-76
2021/06/01 00:55:59;;;;;;;1999.90;999.90;;;13.30;99.90;;;;;;4954646;28;20590;-76
2021/06/01 00:58:26;;;;;;;1999.90;999.90;;;13.40;99.90;;;;;;4954783;28;20169;-76
2021/06/01 01:03:33;;;;;;;1999.90;999.90;;;13.30;99.90;;;;;;4954701;28;20204;-75
2021/06/01 01:06:08;;;;;;;1999.90;999.90;;;13.30;99.90;;;;;;4953191;28;20189;-76
2021/06/01 01:08:51;;;;;;;1999.90;999.90;;;13.40;99.90;;;;;;4953218;28;20207;-76
2021/06/01 01:11:31;;;;;;;1999.90;999.90;;;13.30;99.90;;;;;;4953293;28;20197;-76
2021/06/01 01:14:17;;;;;;;1999.90;999.90;;;13.30;99.90;;;;;;4953331;28;20208;-77
2021/06/01 01:16:51;;;;;;;1999.90;999.90;;;13.30;99.90;;;;;;5010304;23;20250;-75
2021/06/01 01:19:31;;;;;;;1999.90;999.90;;;13.30;99.90;;;;;;5012270;28;20557;-76
2021/06/01 01:21:57;;;;;;;1999.90;999.90;;;13.30;99.90;;;;;;5012494;28;20171;-76
2021/06/01 01:24:41;;;;;;;1999.90;999.90;;;13.40;99.90;;;;;;5012511;28;20261;-76
2021/06/01 01:27:19;;;;;;;1999.90;999.90;;;13.40;99.90;;;;;;5012430;28;20249;-76
2021/06/01 01:29:47;;;;;;;1999.90;999.90;;;13.30;99.90;;;;;;5012448;28;20175;-76
2021/06/01 01:32:51;;;;;;;1999.90;999.90;;;13.40;99.90;;;;;;5010905;28;20236;-75
2021/06/01 01:35:17;;;;;;;1999.90;999.90;;;13.30;99.90;;;;;;5012051;28;20681;-75
2021/06/01 01:37:44;;;;;;;1999.90;999.90;;;13.20;99.90;;;;;;5003583;28;20179;-75
2021/06/01 01:40:10;;;;;;;1999.90;999.90;;;13.20;99.90;;;;;;5010795;28;20204;-76
2021/06/01 01:42:45;;;;;;;1999.90;999.90;;;13.20;99.90;;;;;;5011648;28;20266;-75
2021/06/01 01:45:19;;;;;;;1999.90;999.90;;;13.20;99.90;;;;;;5010706;28;20196;-76
2021/06/01 01:50:45;;;;;;;1999.90;999.90;;;13.20;99.90;;;;;;5011210;28;20218;-75
2021/06/01 01:53:15;;;;;;;1999.90;999.90;;;13.10;99.90;;;;;;5011548;28;20646;-76
2021/06/01 01:55:46;;;;;;;1999.90;999.90;;;13.10;99.90;;;;;;5011758;28;20673;-76
2021/06/01 01:58:14;;;;;;;1999.90;999.90;;;13.10;99.90;;;;;;5010598;28;20182;-76
2021/06/01 02:00:41;;;;;;;1999.90;999.90;;;;;;;;;;5010378;28;20216;-76
2021/06/01 02:03:08;;;;;;;1999.90;999.90;;;13.00;99.90;;;;;;5011794;28;20210;-77
2021/06/01 02:05:36;;;;;;;1999.90;999.90;;;12.90;99.90;;;;;;5010363;28;20347;-75
2021/06/01 02:08:02;;;;;;;1999.90;999.90;;;12.90;99.90;;;;;;5011704;28;20180;-76
2021/06/01 02:10:28;;;;;;;1999.90;999.90;;;12.90;99.90;;;;;;5011651;28;20646;-76
2021/06/01 02:12:54;;;;;;;1999.90;999.90;;;12.90;99.90;;;;;;5010310;28;20185;-76
2021/06/01 02:15:20;;;;;;;1999.90;999.90;;;12.80;99.90;;;;;;5011411;28;20195;-76
2021/06/01 02:17:46;;;;;;;1999.90;999.90;;;12.80;99.90;;;;;;5011520;28;20193;-76
2021/06/01 02:20:13;;;;;;;1999.90;999.90;;;12.80;99.90;;;;;;5011578;28;20258;-75
2021/06/01 02:26:06;;;;;;;1999.90;999.90;;;12.70;99.90;;;;;;5001203;28;20214;-75
2021/06/01 02:28:41;;;;;;;1999.90;999.90;;;12.70;99.90;;;;;;4984890;28;20181;-75
2021/06/01 02:31:13;;;;;;;1999.90;999.90;;;12.60;99.90;;;;;;4995298;28;20231;-75
2021/06/01 02:33:42;;;;;;;1999.90;999.90;;;12.60;99.90;;;;;;5007827;28;20180;-76
2021/06/01 02:36:08;;;;;;;1999.90;999.90;;;12.50;99.90;;;;;;5003446;28;20226;-75
2021/06/01 02:38:35;;;;;;;1999.90;999.90;;;12.50;99.90;;;;;;5009790;28;20176;-76
2021/06/01 02:41:03;;;;;;;1999.90;999.90;;;12.50;99.90;;;;;;5009859;28;20179;-76
2021/06/01 02:43:30;;;;;;;1999.90;999.90;;;12.50;99.90;;;;;;5011053;28;20171;-76
2021/06/01 02:45:56;;;;;;;1999.90;999.90;;;12.40;99.90;;;;;;5010885;28;20210;-75
2021/06/01 02:48:22;;;;;;;1999.90;999.90;;;12.40;99.90;;;;;;5010908;28;20183;-75
2021/06/01 02:50:52;;;;;;;1999.90;999.90;;;12.40;99.90;;;;;;5010863;28;20230;-75
2021/06/01 02:53:20;;;;;;;1999.90;999.90;;;12.30;99.90;;;;;;5010587;28;20249;-76
2021/06/01 02:55:46;;;;;;;1999.90;999.90;;;12.30;99.90;;;;;;5009325;28;20711;-75
2021/06/01 02:58:13;;;;;;;1999.90;999.90;;;12.20;99.90;;;;;;5010967;28;20185;-76
2021/06/01 03:00:42;;;;;;;1999.90;999.90;;;12.20;99.90;;;;;;5010792;28;20529;-75
2021/06/01 03:03:09;;;;;;;1999.90;999.90;;;12.10;99.90;;;;;;5010746;28;20183;-75
2021/06/01 03:05:35;;;;;;;1999.90;999.90;;;12.10;99.90;;;;;;5010860;28;20195;-75
2021/06/01 03:08:10;;;;;;;1999.90;999.90;;;12.00;99.90;;;;;;5010684;28;20549;-77
2021/06/01 03:10:35;;;;;;;1999.90;999.90;;;12.00;99.90;;;;;;5009422;28;20174;-78
2021/06/01 03:13:01;;;;;;;1999.90;999.90;;;11.90;99.90;;;;;;5010648;28;20183;-75
2021/06/01 03:15:28;;;;;;;1999.90;999.90;;;11.90;99.90;;;;;;5010498;28;20286;-75
2021/06/01 03:17:54;;;;;;;1999.90;999.90;;;11.90;99.90;;;;;;5012035;28;20183;-75
2021/06/01 03:20:21;;;;;;;1999.90;999.90;;;11.90;99.90;;;;;;5004206;28;20240;-75
2021/06/01 03:22:46;;;;;;;1999.90;999.90;;;11.90;99.90;;;;;;5004909;28;20269;-76
2021/06/01 03:25:13;;;;;;;1999.90;999.90;;;11.90;99.90;;;;;;5010655;28;20267;-77
2021/06/01 03:27:39;;;;;;;1999.90;999.90;;;11.80;99.90;;;;;;5010910;28;20214;-75
2021/06/01 03:30:07;;;;;;;1999.90;999.90;;;11.80;99.90;;;;;;5011031;28;20182;-76
2021/06/01 03:32:32;;;;;;;1999.90;999.90;;;11.70;99.90;;;;;;5009386;28;20650;-75
2021/06/01 03:34:58;;;;;;;1999.90;999.90;;;11.70;99.90;;;;;;5010394;28;20205;-75
2021/06/01 03:37:24;;;;;;;1999.90;999.90;;;11.60;99.90;;;;;;5001815;28;20192;-76
2021/06/01 03:39:49;;;;;;;1999.90;999.90;;;11.60;99.90;;;;;;5015021;28;20207;-75
2021/06/01 03:42:15;;;;;;;1999.90;999.90;;;11.60;99.90;;;;;;5015588;28;20598;-75
2021/06/01 03:44:44;;;;;;;1999.90;999.90;;;11.50;99.90;;;;;;5014915;28;20183;-75
2021/06/01 03:47:10;;;;;;;1999.90;999.90;;;11.50;99.90;;;;;;5014203;28;20237;-76
2021/06/01 03:49:36;;;;;;;1999.90;999.90;;;11.50;99.90;;;;;;5014019;28;20179;-76
2021/06/01 03:52:07;;;;;;;1999.90;999.90;;;11.40;99.90;;;;;;5013049;28;20187;-78
2021/06/01 03:54:37;;;;;;;1999.90;999.90;;;11.40;99.90;;;;;;5013958;28;20205;-76
2021/06/01 03:57:04;;;;;;;1999.90;999.90;;;11.40;99.90;;;;;;5014893;28;20195;-75
2021/06/01 03:59:30;;;;;;;1999.90;999.90;;;11.40;99.90;;;;;;5012631;28;20202;-75
2021/06/01 04:01:55;;;;;;;1999.90;999.90;;;11.50;99.90;;;;;;4992300;28;20180;-76
2021/06/01 04:04:21;;;;;;;1999.90;999.90;;;11.40;99.90;;;;;;5006120;28;20175;-76
2021/06/01 04:06:47;;;;;;;1999.90;999.90;;;11.50;99.90;;;;;;5002062;28;20214;-76
2021/06/01 04:09:13;;;;;;;1999.90;999.90;;;11.50;99.90;;;;;;5011563;28;20210;-76
2021/06/01 04:11:38;;;;;;;1999.90;999.90;;;11.40;99.90;;;;;;5012010;28;20676;-75
2021/06/01 04:14:04;;;;;;;1999.90;999.90;;;11.40;99.90;;;;;;5012482;28;20205;-75
2021/06/01 04:16:30;;;;;;;1999.90;999.90;;;11.40;99.90;;;;;;5013154;28;20214;-75
2021/06/01 04:18:55;;;;;;;1999.90;999.90;;;11.40;99.90;;;;;;5012140;28;20573;-75
2021/06/01 04:21:21;;;;;;;1999.90;999.90;;;11.40;99.90;;;;;;5013333;28;20317;-76
2021/06/01 04:23:47;;;;;;;1999.90;999.90;;;11.50;99.90;;;;;;4999644;28;20185;-75
2021/06/01 04:26:13;;;;;;;1999.90;999.90;;;11.50;99.90;;;;;;5002705;28;20199;-76
2021/06/01 04:28:40;;;;;;;1999.90;999.90;;;11.50;99.90;;;;;;5013104;28;20229;-75
2021/06/01 04:31:06;;;;;;;1999.90;999.90;;;11.50;99.90;;;;;;5013419;28;20172;-75
2021/06/01 04:33:32;;;;;;;1999.90;999.90;;;11.50;99.90;;;;;;5001504;28;20186;-75
2021/06/01 04:35:59;;;;;;;1999.90;999.90;;;11.50;99.90;;;;;;4999719;28;20208;-76
2021/06/01 04:38:25;;;;;;;1999.90;999.90;;;11.60;99.90;;;;;;4979933;28;20175;-75
2021/06/01 04:40:51;;;;;;;1999.90;999.90;;;11.60;99.90;;;;;;4991980;28;20183;-75
2021/06/01 04:43:17;;;;;;;1999.90;999.90;;;11.70;99.90;;;;;;4988433;28;20220;-75
2021/06/01 04:45:42;;;;;;;1999.90;999.90;;;11.80;99.90;;;;;;4998036;28;20223;-76
2021/06/01 04:48:08;;;;;;;1999.90;999.90;;;11.90;99.90;;;;;;4996743;28;20180;-75
2021/06/01 04:50:34;;;;;;;1999.90;999.90;;;11.90;99.90;;;;;;4995453;28;20181;-75
2021/06/01 04:53:00;;;;;;;1999.90;999.90;;;12.10;99.90;;;;;;4995664;28;20666;-77
2021/06/01 04:55:25;;;;;;;1999.90;999.90;;;12.20;99.90;;;;;;4995403;28;20195;-75
2021/06/01 04:57:51;;;;;;;1999.90;999.90;;;12.40;99.90;;;;;;4996777;28;20176;-75
2021/06/01 05:00:17;;;;;;;1999.90;999.90;;;12.50;99.90;;;;;;4995843;28;20530;-74
2021/06/01 05:02:43;;;;;;;1999.90;999.90;;;12.70;99.90;;;;;;4998754;28;20175;-75
2021/06/01 05:05:09;;;;;;;1999.90;999.90;;;12.80;99.90;;;;;;4985605;28;20689;-76
2021/06/01 05:07:35;;;;;;;1999.90;999.90;;;12.90;99.90;;;;;;5008676;28;20194;-76
2021/06/01 05:10:01;;;;;;;1999.90;999.90;;;12.90;99.90;;;;;;4996725;28;20790;-75
2021/06/01 05:12:28;;;;;;;1999.90;999.90;;;13.00;99.90;;;;;;4995631;28;20190;-75
2021/06/01 05:14:54;;;;;;;1999.90;999.90;;;13.00;99.90;;;;;;5001777;28;20708;-75
2021/06/01 05:17:20;;;;;;;1999.90;999.90;;;13.00;99.90;;;;;;4994785;28;20219;-75
2021/06/01 05:19:46;;;;;;;1999.90;999.90;;;13.10;99.90;;;;;;5011148;28;20179;-76
2021/06/01 05:22:12;;;;;;;1999.90;999.90;;;13.20;99.90;;;;;;5013442;28;20175;-75
2021/06/01 05:24:39;;;;;;;1999.90;999.90;;;13.40;99.90;;;;;;5014495;28;20178;-75
2021/06/01 05:27:06;;;;;;;1999.90;999.90;;;13.30;99.90;;;;;;5001166;28;20212;-78
2021/06/01 05:29:34;;;;;;;1999.90;999.90;;;13.40;99.90;;;;;;5008927;28;20187;-77
2021/06/01 05:32:08;;;;;;;1999.90;999.90;;;13.40;99.90;;;;;;4988232;28;20183;-77
2021/06/01 05:34:37;;;;;;;1999.90;999.90;;;13.50;99.90;;;;;;4995123;28;20594;-76
2021/06/01 05:37:03;;;;;;;1999.90;999.90;;;13.60;99.90;;;;;;5004859;28;20214;-77
2021/06/01 05:39:29;;;;;;;1999.90;999.90;;;13.70;99.90;;;;;;5002622;28;20206;-77
2021/06/01 05:41:54;;;;;;;1999.90;999.90;;;13.70;99.90;;;;;;4994578;28;20599;-77
2021/06/01 05:44:20;;;;;;;1999.90;999.90;;;13.80;99.90;;;;;;4992857;28;20673;-77
2021/06/01 05:46:46;;;;;;;1999.90;999.90;;;13.80;99.90;;;;;;4996847;28;20748;-76
2021/06/01 05:49:12;;;;;;;1999.90;999.90;;;13.80;99.90;;;;;;4992322;28;20720;-77
2021/06/01 05:51:38;;;;;;;1999.90;999.90;;;14.00;99.90;;;;;;4994292;28;20176;-78
2021/06/01 05:54:05;;;;;;;1999.90;999.90;;;14.10;99.90;;;;;;4995769;28;20749;-77
2021/06/01 05:56:31;;;;;;;1999.90;999.90;;;14.20;99.90;;;;;;4994133;28;20630;-78
2021/06/01 05:58:57;;;;;;;1999.90;999.90;;;14.20;99.90;;;;;;5005124;28;20175;-77
2021/06/01 06:01:22;;;;;;;1999.90;999.90;;;14.30;99.90;;;;;;5001880;28;20187;-77
2021/06/01 06:03:48;;;;;;;1999.90;999.90;;;14.30;99.90;;;;;;4995256;28;20179;-76
2021/06/01 06:06:15;;;;;;;1999.90;999.90;;;14.50;99.90;;;;;;5008024;28;20245;-78
2021/06/01 06:08:41;;;;;;;1999.90;999.90;;;14.50;99.90;;;;;;5003919;28;20188;-77
2021/06/01 06:11:06;;;;;;;1999.90;999.90;;;14.60;99.90;;;;;;4992886;28;20176;-75
2021/06/01 06:13:32;;;;;;;1999.90;999.90;;;14.60;99.90;;;;;;4997311;28;20226;-77
2021/06/01 06:15:58;;;;;;;1999.90;999.90;;;14.60;99.90;;;;;;4993591;28;20218;-76
2021/06/01 06:18:32;;;;;;;1999.90;999.90;;;14.60;99.90;;;;;;4993481;28;20182;-77
2021/06/01 06:21:02;;;;;;;1999.90;999.90;;;14.60;99.90;;;;;;4993355;28;20190;-78
2021/06/01 06:23:31;;;;;;;1999.90;999.90;;;14.70;99.90;;;;;;4991569;28;20176;-77
2021/06/01 06:25:57;;;;;;;1999.90;999.90;;;14.60;99.90;;;;;;4997615;28;20281;-78
2021/06/01 06:28:22;;;;;;;1999.90;999.90;;;14.60;99.90;;;;;;5001813;28;20179;-78
2021/06/01 06:30:48;;;;;;;1999.90;999.90;;;14.60;99.90;;;;;;5015668;28;20270;-77
2021/06/01 06:33:13;;;;;;;1999.90;999.90;;;14.60;99.90;;;;;;5005272;28;20190;-77
2021/06/01 06:35:39;;;;;;;1999.90;999.90;;;14.60;99.90;;;;;;5013997;28;20207;-77
2021/06/01 06:38:05;;;;;;;1999.90;999.90;;;14.80;99.90;;;;;;5003631;28;20182;-77
2021/06/01 06:40:30;;;;;;;1999.90;999.90;;;14.90;99.90;;;;;;5013026;28;20660;-76
2021/06/01 06:42:57;;;;;;;1999.90;999.90;;;15.00;99.90;;;;;;5013466;28;20262;-76
2021/06/01 06:45:24;;;;;;;1999.90;999.90;;;15.00;99.90;;;;;;5013409;28;20183;-77
2021/06/01 06:48:05;;;;;;;1999.90;999.90;;;15.10;99.90;;;;;;5016019;28;20233;-78
2021/06/01 06:50:32;;;;;;;1999.90;999.90;;;15.10;99.90;;;;;;5011560;28;20175;-78
2021/06/01 06:52:58;;;;;;;1999.90;999.90;;;15.10;99.90;;;;;;5015818;28;20178;-77
2021/06/01 06:55:24;;;;;;;1999.90;999.90;;;15.20;99.90;;;;;;5014190;28;20195;-77
2021/06/01 06:57:50;;;;;;;1999.90;999.90;;;15.20;99.90;;;;;;4991379;28;20179;-78
2021/06/01 07:00:17;;;;;;;1999.90;999.90;;;15.30;99.90;;;;;;4993991;28;20714;-77
2021/06/01 07:02:44;;;;;;;1999.90;999.90;;;15.30;99.90;;;;;;5007938;28;20179;-76
2021/06/01 07:05:12;;;;;;;1999.90;999.90;;;15.20;99.90;;;;;;5003504;28;20190;-77
2021/06/01 07:07:38;;;;;;;1999.90;999.90;;;15.30;99.90;;;;;;4993305;28;20211;-77
2021/06/01 07:10:06;;;;;;;1999.90;999.90;;;15.20;99.90;;;;;;4976527;28;20177;-77
2021/06/01 07:12:31;;;;;;;1999.90;999.90;;;15.20;99.90;;;;;;5000644;28;20214;-77
2021/06/01 07:14:57;;;;;;;1999.90;999.90;;;15.50;99.90;;;;;;5002060;28;20235;-77
2021/06/01 07:17:23;;;;;;;1999.90;999.90;;;15.70;99.90;;;;;;5008009;23;20315;-76
2021/06/01 07:19:53;;;;;;;1999.90;999.90;;;15.90;99.90;;;;;;4995001;28;20183;-75
2021/06/01 07:22:19;;;;;;;1999.90;999.90;;;16.00;99.90;;;;;;4997383;28;20198;-77
2021/06/01 07:24:45;;;;;;;1999.90;999.90;;;16.00;99.90;;;;;;4997282;28;20180;-77
2021/06/01 07:27:10;;;;;;;1999.90;999.90;;;16.00;99.90;;;;;;4988975;28;20655;-77
2021/06/01 07:29:36;;;;;;;1999.90;999.90;;;16.10;99.90;;;;;;4965786;28;20192;-76
2021/06/01 07:32:02;;;;;;;1999.90;999.90;;;16.20;99.90;;;;;;4992407;28;20179;-77
2021/06/01 07:34:27;;;;;;;1999.90;999.90;;;16.30;99.90;;;;;;4997047;28;20199;-76
2021/06/01 07:36:53;;;;;;;1999.90;999.90;;;16.40;99.90;;;;;;4996916;28;20192;-75
2021/06/01 07:39:19;;;;;;;1999.90;999.90;;;16.40;99.90;;;;;;4982475;28;20184;-75
2021/06/01 07:41:44;;;;;;;1999.90;999.90;;;16.40;99.90;;;;;;4989183;28;20180;-77
2021/06/01 07:44:10;;;;;;;1999.90;999.90;;;16.50;99.90;;;;;;4997028;28;20171;-76
2021/06/01 07:46:35;;;;;;;1999.90;999.90;;;16.70;99.90;;;;;;4996658;28;20178;-77
2021/06/01 07:49:01;;;;;;;1999.90;999.90;;;16.70;99.90;;;;;;4988088;28;20173;-77
2021/06/01 07:51:31;;;;;;;1999.90;999.90;;;16.80;99.90;;;;;;4985314;28;20203;-76
2021/06/01 07:54:03;;;;;;;1999.90;999.90;;;16.80;99.90;;;;;;4989948;28;20185;-77
2021/06/01 07:56:29;;;;;;;1999.90;999.90;;;16.90;99.90;;;;;;4957394;28;20177;-77
2021/06/01 07:58:55;;;;;;;1999.90;999.90;;;17.00;99.90;;;;;;4983970;28;20176;-76
2021/06/01 08:01:20;;;;;;;1999.90;999.90;;;17.00;99.90;;;;;;4996575;28;20754;-77
2021/06/01 08:03:46;;;;;;;1999.90;999.90;;;17.20;99.90;;;;;;4971257;28;20547;-77
2021/06/01 08:06:12;;;;;;;1999.90;999.90;;;17.30;99.90;;;;;;4991899;28;20175;-76
2021/06/01 08:08:38;;;;;;;1999.90;999.90;;;17.50;99.90;;;;;;4996610;28;20188;-77
2021/06/01 08:11:04;;;;;;;1999.90;999.90;;;17.60;99.90;;;;;;4996838;28;20171;-78
2021/06/01 08:13:31;;;;;;;1999.90;999.90;;;17.60;99.90;;;;;;4979161;28;20179;-77
2021/06/01 08:15:57;;;;;;;1999.90;999.90;;;17.70;99.90;;;;;;4992076;28;20278;-76
2021/06/01 08:18:26;;;;;;;1999.90;999.90;;;17.70;99.90;;;;;;4995902;28;20278;-76
2021/06/01 08:21:10;;;;;;;1999.90;999.90;;;17.60;99.90;;;;;;4974400;28;20180;-77
2021/06/01 08:23:36;;;;;;;1999.90;999.90;;;17.60;99.90;;;;;;4996233;28;20623;-76
2021/06/01 08:26:03;;;;;;;1999.90;999.90;;;17.90;99.90;;;;;;4990806;28;20211;-76
2021/06/01 08:28:29;;;;;;;1999.90;999.90;;;18.10;99.90;;;;;;4966028;28;20204;-76
2021/06/01 08:30:55;;;;;;;1999.90;999.90;;;18.30;99.90;;;;;;4963352;28;20187;-77
2021/06/01 08:33:21;;;;;;;1999.90;999.90;;;18.50;99.90;;;;;;4995725;28;20580;-76
2021/06/01 08:35:47;;;;;;;1999.90;999.90;;;18.60;99.90;;;;;;4995937;28;20211;-76
2021/06/01 08:38:15;;;;;;;1999.90;999.90;;;18.70;99.90;;;;;;4995805;28;20660;-77
2021/06/01 08:40:41;;;;;;;1999.90;999.90;;;18.90;99.90;;;;;;4995843;28;20164;-77
2021/06/01 08:43:22;;;;;;;1999.90;999.90;;;18.90;99.90;;;;;;4996125;28;20268;-76
2021/06/01 08:45:53;;;;;;;1999.90;999.90;;;19.00;99.90;;;;;;4996016;28;20258;-77
2021/06/01 08:48:19;;;;;;;1999.90;999.90;;;19.10;99.90;;;;;;4995924;28;20196;-77
2021/06/01 08:50:51;;;;;;;1999.90;999.90;;;19.20;99.90;;;;;;4995859;28;20180;-76
2021/06/01 08:53:17;;;;;;;1999.90;999.90;;;19.20;99.90;;;;;;4995560;28;20175;-76
2021/06/01 08:55:43;;;;;;;1999.90;999.90;;;19.30;99.90;;;;;;4988410;28;20717;-76
2021/06/01 08:58:17;;;;;;;1999.90;999.90;;;19.40;99.90;;;;;;4988802;28;20239;-77
2021/06/01 09:00:44;;;;;;;1999.90;999.90;;;19.50;99.90;;;;;;4990204;28;20171;-78
2021/06/01 09:03:17;;;;;;;1999.90;999.90;;;19.50;99.90;;;;;;4995862;28;20635;-76
2021/06/01 09:06:26;;;;;;;1999.90;999.90;;;19.60;99.90;;;;;;4995822;28;20172;-76
2021/06/01 09:22:36;;;;;;;1999.90;999.90;;;20.30;98.80;;;;;;4977283;28;20203;-76
2021/06/01 09:25:17;;;;;;;1999.90;999.90;;;20.50;99.60;;;;;;4982843;28;20677;-77
2021/06/01 09:27:53;;;;;;;1999.90;999.90;;;20.60;98.90;;;;;;4960616;28;20664;-77
2021/06/01 09:30:31;;;;;;;1999.90;999.90;;;20.60;99.50;;;;;;4995077;28;20651;-76
2021/06/01 09:32:57;;;;;;;1999.90;999.90;;;20.70;98.00;;;;;;4985515;28;20651;-77
2021/06/01 09:35:49;;;;;;;1999.90;999.90;;;20.90;99.90;;;;;;4988598;28;20246;-76
2021/06/01 09:38:17;;;;;;;1999.90;999.90;;;21.10;98.80;;;;;;4992986;28;20194;-77
2021/06/01 09:40:43;;;;;;;1999.90;999.90;;;21.10;97.80;;;;;;4992151;28;20164;-77
2021/06/01 09:43:13;;;;;;;1999.90;999.90;;;21.10;96.80;;;;;;4977911;28;20171;-77
2021/06/01 09:45:40;;;;;;;1999.90;999.90;;;21.10;95.30;;;;;;4995474;28;20183;-78
2021/06/01 09:48:08;;;;;;;1999.90;999.90;;;21.20;96.50;;;;;;4995057;28;20671;-77
2021/06/01 09:50:48;;;;;;;1999.90;999.90;;;21.20;96.50;;;;;;4995348;28;20187;-77
2021/06/01 09:53:37;;;;;;;1999.90;999.90;;;21.30;96.20;;;;;;4995540;28;20169;-77
2021/06/01 09:56:03;;;;;;;1999.90;999.90;;;21.30;95.50;;;;;;4994559;28;20262;-76
2021/06/01 09:58:33;;;;;;;1999.90;999.90;;;21.30;95.80;;;;;;4994910;28;20241;-78
2021/06/01 10:01:02;;;;;;;1999.90;999.90;;;21.30;95.60;;;;;;4995185;28;20176;-76
2021/06/01 10:03:43;;;;;;;1999.90;999.90;;;21.50;95.20;;;;;;4995097;28;20172;-76
2021/06/01 10:06:10;;;;;;;1999.90;999.90;;;21.70;95.30;;;;;;4995179;28;20185;-78
2021/06/01 10:08:52;;;;;;;1999.90;999.90;;;21.80;94.50;;;;;;4995453;28;20199;-77
2021/06/01 10:11:18;;;;;;;1999.90;999.90;;;21.70;95.70;;;;;;4995526;28;20259;-78
2021/06/01 10:13:44;;;;;;;1999.90;999.90;;;21.80;95.20;;;;;;4994813;28;20258;-78
2021/06/01 10:16:15;;;;;;;1999.90;999.90;;;22.00;94.50;;;;;;4994838;28;20204;-78
2021/06/01 10:18:42;;;;;;;1999.90;999.90;;;22.00;95.00;;;;;;4994811;28;20203;-77
2021/06/01 10:21:14;;;;;;;1999.90;999.90;;;22.00;95.90;;;;;;4994918;28;20603;-77
2021/06/01 10:23:42;;;;;;;1999.90;999.90;;;22.30;95.10;;;;;;4994976;28;20263;-78
2021/06/01 10:26:10;;;;;;;1999.90;999.90;;;22.40;94.60;;;;;;4994478;28;20172;-77
2021/06/01 10:28:40;;;;;;;1999.90;999.90;;;22.20;94.40;;;;;;4985381;28;20191;-76
2021/06/01 10:31:08;;;;;;;1999.90;999.90;;;22.20;94.30;;;;;;4994331;28;20188;-77
2021/06/01 10:33:55;;;;;;;1999.90;999.90;;;22.20;94.40;;;;;;4994210;28;20222;-78
2021/06/01 10:44:47;;;;;;;1999.90;999.90;;;;;;;;;;4994607;28;20225;-77
2021/06/01 10:50:26;;;;;;;1999.90;999.90;;;;;;;;;;4995190;28;20190;-78
2021/06/01 10:53:04;;;;;;;1999.90;999.90;;;;;;;;;;4990081;28;20187;-77
2021/06/01 10:58:21;;;;;;;1999.90;999.90;;;;;;;;;;4994429;28;20211;-76
2021/06/01 11:03:18;;;;;;;1999.90;999.90;;;;;;;;;;4993884;28;20172;-76
2021/06/01 11:05:56;;;;;;;1999.90;999.90;;;;;;;;;;4994654;28;20226;-79
2021/06/01 11:08:38;;;;;;;1999.90;999.90;;;;;;;;;;4976767;28;20250;-76
2021/06/01 11:11:22;;;;;;;1999.90;999.90;;;;;;;;;;4994398;28;20534;-77
2021/06/01 11:13:49;;;;;;;1999.90;999.90;;;;;;;;;;4994122;28;20176;-78
2021/06/01 11:16:15;;;;;;;1999.90;999.90;;;;;;;;;;4993982;28;20199;-75
2021/06/01 11:18:53;;;;;;;1999.90;999.90;;;;;;;;;;4994030;28;20258;-78
2021/06/01 11:21:35;;;;;;;1999.90;999.90;;;;;;;;;;4994052;28;20167;-76
2021/06/01 11:32:52;;;;;;;1999.90;999.90;;;;;;;;;;4994229;28;20544;-77
2021/06/01 11:35:23;;;;;;;1999.90;999.90;;;;;;;;;;4976584;28;20223;-78
2021/06/01 11:37:57;;;;;;;1999.90;999.90;;;;;;;;;;4993671;28;20275;-77
2021/06/01 11:40:30;;;;;;;1999.90;999.90;;;;;;;;;;4994227;28;20164;-78
2021/06/01 11:43:06;;;;;;;1999.90;999.90;;;;;;;;;;4994068;28;20187;-77
2021/06/01 11:45:42;;;;;;;1999.90;999.90;;;;;;;;;;4994046;28;20541;-78
2021/06/01 11:50:55;;;;;;;1999.90;999.90;;;;;;;;;;4993562;28;20195;-77
2021/06/01 11:51:11;;;;;;;1999.90;999.90;;;;;;;;;;4991129;28;20176;-77
2021/06/01 11:53:44;;;;;;;1999.90;999.90;;;;;;;;;;4994037;28;20170;-77
2021/06/01 11:56:10;;;;;;;1999.90;999.90;;;;;;;;;;4993416;28;20195;-77
2021/06/01 12:18:36;;;;;;;1999.90;999.90;;;;;;;;;;4996640;28;20315;-77
2021/06/01 12:20:56;;;;;;;1999.90;999.90;;;;;;;;;;4995959;28;20183;-77
2021/06/01 12:23:25;;;;;;;1999.90;999.90;;;;;;;;;;4996042;28;20164;-76
2021/06/01 12:26:16;;;;;;;1999.90;999.90;;;;;;;;;;4996417;28;20243;-77
2021/06/01 12:31:50;;;;;;;1999.90;999.90;;;;;;;;;;4995636;28;20231;-76
2021/06/01 12:34:21;;;;;;;1999.90;999.90;;;;;;;;;;4995760;28;20180;-76
2021/06/01 12:42:37;;;;;;;1999.90;999.90;;;;;;;;;;4995831;28;20230;-77
2021/06/01 12:45:04;;;;;;;1999.90;999.90;;;;;;;;;;4995931;28;20515;-75
2021/06/01 13:09:41;;;;;;;1999.90;999.90;;;;;;;;;;4996180;28;20647;-77
2021/06/01 13:40:56;;;;;;;1999.90;999.90;;;24.80;90.70;;;;;;4976489;28;20225;-77
2021/06/01 13:46:23;;;;;;;1999.90;999.90;;;24.80;89.40;;;;;;4975788;28;20195;-77
2021/06/01 13:51:40;;;;;;;1999.90;999.90;;;24.60;90.20;;;;;;4975972;28;20179;-74
2021/06/01 13:56:56;;;;;;;1999.90;999.90;;;24.70;91.50;;;;;;4976666;28;20199;-77
2021/06/01 13:59:36;;;;;;;1999.90;999.90;;;24.70;91.40;;;;;;4990035;28;20227;-75
2021/06/01 14:21:08;;;;;;;1999.90;999.90;;;24.70;88.70;;;;;;4976076;28;20203;-77
2021/06/01 15:51:04;;;;;;;1999.90;999.90;;;;;;;;;;4964259;28;20183;-76
2021/06/01 15:53:48;;;;;;;1999.90;999.90;;;;;;;;;;4979698;28;20200;-77
2021/06/01 17:04:41;;;;;;;1999.90;999.90;;;23.20;79.10;;;;;;4956995;28;20228;-77
2021/06/01 17:07:22;;;;;;;1999.90;999.90;;;23.20;78.60;;;;;;4966132;28;20639;-76
2021/06/01 17:13:14;;;;;;;1999.90;999.90;;;23.10;82.10;;;;;;4952868;28;20648;-77
2021/06/01 17:15:41;;;;;;;1999.90;999.90;;;23.10;80.60;;;;;;4961746;28;20196;-77
2021/06/01 17:18:19;;;;;;;1999.90;999.90;;;23.10;80.90;;;;;;4960918;28;20216;-76
2021/06/01 17:36:54;;;;;;;1999.90;999.90;;;23.00;81.00;;;;;;4955235;28;20200;-77
2021/06/01 17:39:21;;;;;;;1999.90;999.90;;;22.90;80.70;;;;;;4966467;28;20268;-78
2021/06/01 17:41:51;;;;;;;1999.90;999.90;;;22.90;80.90;;;;;;4978746;28;20217;-76
2021/06/01 17:44:22;;;;;;;1999.90;999.90;;;22.80;82.00;;;;;;4964399;28;20173;-77
2021/06/01 17:46:49;;;;;;;1999.90;999.90;;;22.80;83.20;;;;;;4973677;28;20169;-77